Time;durP1;ratioP1;P1;durP2;ratioP2;P2;SDS_P1;SDS_P2;PMS_P1;PMS_P2;Temp;Humidity;BMP_temperature;BMP_pressure;BME280_temperature;BME280_humidity;BME280_pressure;Samples;Min_cycle;Max_cycle;Signal;HPM_P1;HPM_P2
2023/10/05 00:02:08;;;;;;;8.10;1.67;;;13.10;99.90;;;;;;5025544;28;20540;-64
2023/10/05 00:04:41;;;;;;;8.85;1.45;;;13.10;99.90;;;;;;5027618;28;20049;-64
2023/10/05 00:07:26;;;;;;;7.78;1.23;;;13.20;99.90;;;;;;5025772;28;20045;-64
2023/10/05 00:09:52;;;;;;;10.52;1.70;;;13.20;99.90;;;;;;5006368;28;20056;-65
2023/10/05 00:12:19;;;;;;;5.78;1.30;;;13.20;99.90;;;;;;5026118;28;20042;-64
2023/10/05 00:15:31;;;;;;;7.68;1.60;;;13.20;99.90;;;;;;5009600;28;20550;-65
2023/10/05 00:17:38;;;;;;;7.32;1.33;;;13.20;99.90;;;;;;4990217;28;20104;-64
2023/10/05 00:20:11;;;;;;;7.53;1.30;;;13.20;99.90;;;;;;4997137;28;20117;-65
2023/10/05 00:22:40;;;;;;;4.88;1.35;;;13.20;99.90;;;;;;5007856;28;20046;-64
2023/10/05 00:25:09;;;;;;;10.10;1.45;;;13.20;99.90;;;;;;5005941;28;20042;-64
2023/10/05 00:27:36;;;;;;;5.25;1.17;;;13.20;99.90;;;;;;5007763;28;20534;-64
2023/10/05 00:30:02;;;;;;;6.43;1.38;;;13.20;99.90;;;;;;4999650;28;20400;-64
2023/10/05 00:32:35;;;;;;;4.30;1.10;;;13.20;99.90;;;;;;5007121;28;20030;-64
2023/10/05 00:37:37;;;;;;;13.15;1.95;;;13.20;99.90;;;;;;5006402;28;20046;-64
2023/10/05 00:40:05;;;;;;;55.95;34.60;;;13.20;99.90;;;;;;5005237;28;20084;-64
2023/10/05 00:42:30;;;;;;;3.40;2.00;;;13.20;99.90;;;;;;5002362;28;20100;-64
2023/10/05 00:45:01;;;;;;;6.93;1.40;;;13.20;99.90;;;;;;5002125;28;20046;-65
2023/10/05 00:47:27;;;;;;;8.30;1.92;;;13.20;99.90;;;;;;4989087;28;20358;-64
2023/10/05 00:49:54;;;;;;;4.35;1.50;;;13.20;99.90;;;;;;5005790;28;20045;-64
2023/10/05 00:52:26;;;;;;;5.60;2.15;;;13.10;99.90;;;;;;5006582;28;20045;-64
2023/10/05 00:54:59;;;;;;;4.20;1.58;;;13.10;99.90;;;;;;5004153;28;20064;-65
2023/10/05 00:57:25;;;;;;;6.65;1.65;;;13.10;99.90;;;;;;5007044;28;20873;-65
2023/10/05 01:00:48;;;;;;;3.35;1.13;;;13.10;99.90;;;;;;4988905;28;20046;-64
2023/10/05 01:03:16;;;;;;;4.50;1.95;;;13.10;99.90;;;;;;5000133;28;20042;-64
2023/10/05 01:05:36;;;;;;;9.48;1.55;;;13.10;99.90;;;;;;5008950;28;20494;-64
2023/10/05 01:08:04;;;;;;;4.57;1.15;;;13.10;99.90;;;;;;5009809;28;20042;-65
2023/10/05 01:10:48;;;;;;;5.20;1.83;;;13.10;99.90;;;;;;5011477;28;20042;-64
2023/10/05 01:13:34;;;;;;;4.13;1.48;;;13.10;99.90;;;;;;4991983;28;20046;-64
2023/10/05 01:16:19;;;;;;;10.35;2.00;;;13.00;99.90;;;;;;5009078;28;20476;-65
2023/10/05 01:18:45;;;;;;;7.22;1.58;;;13.10;99.90;;;;;;5011342;28;20050;-64
2023/10/05 01:21:11;;;;;;;7.25;1.50;;;13.10;99.90;;;;;;5008931;28;20144;-64
2023/10/05 01:23:41;;;;;;;8.10;1.77;;;13.10;99.90;;;;;;5011397;28;20101;-64
2023/10/05 01:26:10;;;;;;;5.75;1.40;;;13.20;99.90;;;;;;5007506;28;20086;-64
2023/10/05 01:28:40;;;;;;;6.30;2.00;;;13.20;99.90;;;;;;5010788;28;20056;-65
2023/10/05 01:31:09;;;;;;;5.55;1.13;;;13.20;99.90;;;;;;5010394;28;20558;-64
2023/10/05 01:33:35;;;;;;;7.90;1.83;;;13.20;99.90;;;;;;5009711;28;20073;-64
2023/10/05 01:36:03;;;;;;;6.85;1.40;;;13.30;99.90;;;;;;4974624;28;20038;-64
2023/10/05 01:38:37;;;;;;;7.40;1.73;;;13.20;99.90;;;;;;5009431;28;20041;-65
2023/10/05 01:41:09;;;;;;;10.45;1.85;;;13.30;99.90;;;;;;5010218;28;20038;-64
2023/10/05 01:43:35;;;;;;;6.63;1.80;;;13.30;99.90;;;;;;4996576;28;20084;-64
2023/10/05 01:46:04;;;;;;;3.30;1.13;;;13.30;99.90;;;;;;5008200;28;20042;-65
2023/10/05 01:48:31;;;;;;;12.95;1.73;;;13.30;99.90;;;;;;4992361;28;20487;-64
2023/10/05 01:51:05;;;;;;;4.10;1.17;;;13.40;99.90;;;;;;5009259;28;20049;-64
2023/10/05 01:53:32;;;;;;;9.43;1.70;;;13.40;99.90;;;;;;5010383;28;20065;-64
2023/10/05 01:55:59;;;;;;;6.85;1.80;;;13.40;99.90;;;;;;4991338;28;20129;-65
2023/10/05 01:58:27;;;;;;;8.23;1.95;;;13.40;99.90;;;;;;4987764;28;20053;-64
2023/10/05 02:00:56;;;;;;;7.03;1.55;;;13.40;99.90;;;;;;5003311;28;20052;-64
2023/10/05 02:03:25;;;;;;;7.20;1.60;;;13.40;99.90;;;;;;5009190;28;20205;-65
2023/10/05 02:05:58;;;;;;;4.23;1.33;;;13.40;99.90;;;;;;5003718;28;20417;-65
2023/10/05 02:08:27;;;;;;;4.03;1.38;;;13.40;99.90;;;;;;5002685;28;20293;-64
2023/10/05 02:10:52;;;;;;;6.38;1.70;;;13.40;99.90;;;;;;5010363;28;20132;-64
2023/10/05 02:13:18;;;;;;;6.00;1.50;;;13.40;99.90;;;;;;5008214;28;20559;-64
2023/10/05 02:15:48;;;;;;;5.90;1.40;;;13.40;99.90;;;;;;5006986;28;20077;-64
2023/10/05 02:18:31;;;;;;;5.85;1.40;;;13.40;99.90;;;;;;5007200;28;20061;-64
2023/10/05 02:21:08;;;;;;;8.13;1.70;;;13.40;99.90;;;;;;5011014;28;20132;-64
2023/10/05 02:23:41;;;;;;;5.85;1.20;;;13.30;99.90;;;;;;5030074;28;20038;-64
2023/10/05 02:27:09;;;;;;;4.38;1.17;;;13.40;99.90;;;;;;5010060;28;20386;-65
2023/10/05 02:28:56;;;;;;;12.80;1.65;;;13.40;99.90;;;;;;5018781;28;20419;-65
2023/10/05 02:31:22;;;;;;;3.63;1.40;;;13.40;99.90;;;;;;5028458;28;20131;-64
2023/10/05 02:33:48;;;;;;;5.50;1.73;;;13.40;99.90;;;;;;5028676;28;20069;-64
2023/10/05 02:36:20;;;;;;;5.78;1.33;;;13.50;99.90;;;;;;5027464;28;20045;-78
2023/10/05 02:38:49;;;;;;;6.38;1.58;;;13.50;99.90;;;;;;5016674;28;20034;-64
2023/10/05 02:41:24;;;;;;;4.80;1.77;;;13.40;99.90;;;;;;5028777;28;20038;-65
2023/10/05 02:43:53;;;;;;;6.68;1.50;;;13.40;99.90;;;;;;5028432;28;20493;-65
2023/10/05 02:46:20;;;;;;;5.22;1.52;;;13.40;99.90;;;;;;5029037;28;20052;-65
2023/10/05 02:48:47;;;;;;;5.20;1.75;;;13.40;99.90;;;;;;5027286;28;20071;-65
2023/10/05 02:51:15;;;;;;;6.53;2.17;;;13.40;99.90;;;;;;5027931;28;20406;-65
2023/10/05 02:53:41;;;;;;;8.97;1.37;;;13.40;99.90;;;;;;5029223;28;20153;-65
2023/10/05 02:56:27;;;;;;;8.25;1.50;;;13.40;99.90;;;;;;5027725;28;20605;-65
2023/10/05 02:58:56;;;;;;;5.40;1.80;;;13.30;99.90;;;;;;5028012;28;20045;-65
2023/10/05 03:01:26;;;;;;;8.27;1.50;;;13.40;99.90;;;;;;5027850;28;20103;-86
2023/10/05 03:03:54;;;;;;;6.47;1.52;;;13.40;99.90;;;;;;4994918;28;20042;-65
2023/10/05 03:06:22;;;;;;;11.45;2.22;;;13.40;99.90;;;;;;5028649;28;20053;-65
2023/10/05 03:08:49;;;;;;;5.25;1.38;;;13.30;99.90;;;;;;5004638;28;20052;-65
2023/10/05 03:11:18;;;;;;;5.78;1.33;;;13.30;99.90;;;;;;5028452;28;20120;-65
2023/10/05 03:13:44;;;;;;;3.38;1.30;;;13.30;99.90;;;;;;5027547;28;20041;-65
2023/10/05 03:16:10;;;;;;;5.15;1.30;;;13.30;99.90;;;;;;5028675;28;20053;-65
2023/10/05 03:18:43;;;;;;;7.43;1.48;;;13.30;99.90;;;;;;5007444;28;20493;-65
2023/10/05 03:21:13;;;;;;;4.75;1.33;;;13.30;99.90;;;;;;4992253;28;20045;-65
2023/10/05 03:23:42;;;;;;;5.65;1.52;;;13.30;99.90;;;;;;4994464;28;20565;-65
2023/10/05 03:26:15;;;;;;;6.55;1.23;;;13.30;99.90;;;;;;5008013;28;20044;-65
2023/10/05 03:28:41;;;;;;;8.65;1.58;;;13.30;99.90;;;;;;5028073;28;20048;-64
2023/10/05 03:31:43;;;;;;;9.13;1.83;;;13.30;99.90;;;;;;4998984;28;20041;-64
2023/10/05 03:34:10;;;;;;;6.28;1.58;;;13.30;99.90;;;;;;5028050;28;20449;-64
2023/10/05 03:36:36;;;;;;;7.47;1.70;;;13.30;99.90;;;;;;5026453;28;20049;-64
2023/10/05 03:39:07;;;;;;;8.50;1.27;;;13.30;99.90;;;;;;5009333;28;20043;-65
2023/10/05 03:41:34;;;;;;;6.13;1.77;;;13.40;99.90;;;;;;4992439;28;20042;-65
2023/10/05 03:44:02;;;;;;;8.07;1.73;;;13.40;99.90;;;;;;5026997;28;20499;-64
2023/10/05 03:46:28;;;;;;;5.03;1.55;;;13.40;99.90;;;;;;5009932;28;20073;-64
2023/10/05 03:49:00;;;;;;;15.00;2.22;;;13.40;99.90;;;;;;5027109;28;20196;-64
2023/10/05 03:51:26;;;;;;;8.20;1.90;;;13.40;99.90;;;;;;5025204;28;20037;-64
2023/10/05 03:53:53;;;;;;;6.07;2.63;;;13.40;99.90;;;;;;5010264;28;20045;-65
2023/10/05 03:56:19;;;;;;;11.18;2.22;;;13.40;99.90;;;;;;5026198;28;20049;-65
2023/10/05 03:58:48;;;;;;;6.75;1.48;;;13.40;99.90;;;;;;5009865;28;20045;-65
2023/10/05 04:01:17;;;;;;;7.18;1.92;;;13.40;99.90;;;;;;5007981;28;20029;-65
2023/10/05 04:03:46;;;;;;;7.35;1.90;;;13.40;99.90;;;;;;5027280;28;20049;-65
2023/10/05 04:06:24;;;;;;;13.95;1.80;;;13.50;99.90;;;;;;5008885;28;20042;-64
2023/10/05 04:08:57;;;;;;;10.80;1.92;;;13.50;99.90;;;;;;5026655;28;20504;-65
2023/10/05 04:11:26;;;;;;;7.18;2.00;;;13.50;99.90;;;;;;5027887;28;20380;-64
2023/10/05 04:13:53;;;;;;;7.60;1.40;;;13.50;99.90;;;;;;5021882;28;20081;-64
2023/10/05 04:16:22;;;;;;;10.70;1.92;;;13.50;99.90;;;;;;5027491;28;20128;-65
2023/10/05 04:18:50;;;;;;;7.40;2.10;;;13.50;99.90;;;;;;5025514;28;20049;-65
2023/10/05 04:21:19;;;;;;;8.65;1.92;;;13.50;99.90;;;;;;5027857;28;20272;-64
2023/10/05 04:23:58;;;;;;;4.57;1.60;;;13.60;99.90;;;;;;5005947;28;20045;-64
2023/10/05 04:26:32;;;;;;;8.68;1.92;;;13.60;99.90;;;;;;5008598;28;20052;-64
2023/10/05 04:29:02;;;;;;;9.43;1.85;;;13.60;99.90;;;;;;5027373;28;20407;-64
2023/10/05 04:31:28;;;;;;;9.57;1.88;;;13.60;99.90;;;;;;5025374;28;20064;-65
2023/10/05 04:33:55;;;;;;;6.10;1.73;;;13.60;99.90;;;;;;5026564;28;20468;-64
2023/10/05 04:36:24;;;;;;;7.45;1.88;;;13.60;99.90;;;;;;5025145;28;20045;-65
2023/10/05 04:38:54;;;;;;;8.97;1.77;;;13.60;99.90;;;;;;5009605;28;20050;-65
2023/10/05 04:41:39;;;;;;;6.60;1.35;;;13.60;99.90;;;;;;5025563;28;20295;-64
2023/10/05 04:44:07;;;;;;;10.10;2.30;;;13.60;99.90;;;;;;4998319;28;20103;-65
2023/10/05 04:46:33;;;;;;;11.75;2.28;;;13.70;99.90;;;;;;5024025;28;20099;-64
2023/10/05 04:49:08;;;;;;;6.68;1.65;;;13.60;99.90;;;;;;5026008;28;20526;-65
2023/10/05 04:51:41;;;;;;;13.18;2.35;;;13.60;99.90;;;;;;5025923;28;20057;-65
2023/10/05 04:54:10;;;;;;;7.30;1.25;;;13.60;99.90;;;;;;5026412;28;20048;-64
2023/10/05 04:56:43;;;;;;;8.20;2.83;;;13.60;99.90;;;;;;5025927;28;20053;-64
2023/10/05 05:04:41;;;;;;;13.75;2.28;;;13.60;99.90;;;;;;5027670;28;20050;-64
2023/10/05 05:07:10;;;;;;;6.93;1.70;;;13.50;99.90;;;;;;5019514;28;20125;-65
2023/10/05 05:09:39;;;;;;;8.80;2.17;;;13.60;99.90;;;;;;5007511;28;20506;-64
2023/10/05 05:12:09;;;;;;;5.35;1.70;;;13.50;99.90;;;;;;5023703;28;20515;-64
2023/10/05 05:14:42;;;;;;;10.38;1.83;;;13.50;99.90;;;;;;5024916;28;20043;-64
2023/10/05 05:17:15;;;;;;;14.93;2.15;;;13.60;99.90;;;;;;5027403;28;20128;-65
2023/10/05 05:19:42;;;;;;;10.88;2.03;;;13.60;99.90;;;;;;5024832;28;20120;-65
2023/10/05 05:22:08;;;;;;;10.07;1.70;;;13.60;99.90;;;;;;5008624;28;20057;-64
2023/10/05 05:24:36;;;;;;;8.43;1.88;;;13.60;99.90;;;;;;5023634;28;20069;-64
2023/10/05 05:27:21;;;;;;;8.70;1.80;;;13.60;99.90;;;;;;5008393;28;20080;-65
2023/10/05 05:29:47;;;;;;;6.88;1.75;;;13.60;99.90;;;;;;5026383;28;20506;-85
2023/10/05 05:32:13;;;;;;;9.07;1.83;;;13.60;99.90;;;;;;5004549;28;20135;-64
2023/10/05 05:34:50;;;;;;;9.48;1.63;;;13.60;99.90;;;;;;5011285;28;20046;-64
2023/10/05 05:37:28;;;;;;;10.15;1.92;;;13.60;99.90;;;;;;5020371;28;20128;-65
2023/10/05 05:39:54;;;;;;;6.50;1.30;;;13.70;99.90;;;;;;5024527;28;20045;-64
2023/10/05 05:42:20;;;;;;;8.88;2.05;;;13.70;99.90;;;;;;5026591;28;20053;-65
2023/10/05 05:44:46;;;;;;;10.68;2.53;;;13.70;99.90;;;;;;5024779;28;20052;-65
2023/10/05 05:47:14;;;;;;;11.23;1.80;;;13.80;99.90;;;;;;5027066;28;20507;-64
2023/10/05 05:49:40;;;;;;;9.50;2.00;;;13.80;99.90;;;;;;5028113;28;20123;-64
2023/10/05 05:52:08;;;;;;;14.07;2.17;;;13.80;99.90;;;;;;5030145;28;20049;-65
2023/10/05 05:54:37;;;;;;;9.48;2.55;;;13.90;99.90;;;;;;5029344;28;20492;-64
2023/10/05 05:57:06;;;;;;;15.00;2.05;;;13.90;99.90;;;;;;4995347;28;20139;-64
2023/10/05 05:59:34;;;;;;;9.25;2.20;;;13.90;99.90;;;;;;5030078;28;20095;-64
2023/10/05 06:02:03;;;;;;;17.40;2.03;;;13.90;99.90;;;;;;5026831;28;20049;-64
2023/10/05 06:04:32;;;;;;;10.30;1.83;;;13.90;99.90;;;;;;5012167;28;20099;-64
2023/10/05 06:06:59;;;;;;;15.10;2.40;;;14.00;99.90;;;;;;5020311;28;20128;-64
2023/10/05 06:09:26;;;;;;;10.93;1.85;;;14.00;99.90;;;;;;5029651;28;20038;-65
2023/10/05 06:11:53;;;;;;;13.63;2.33;;;14.00;99.90;;;;;;5023448;28;20077;-64
2023/10/05 06:14:19;;;;;;;17.60;2.53;;;14.00;99.90;;;;;;5020055;28;20044;-65
2023/10/05 06:16:45;;;;;;;5.15;1.25;;;14.10;99.90;;;;;;5029309;28;20049;-64
2023/10/05 06:19:12;;;;;;;12.95;2.45;;;14.10;99.90;;;;;;5027819;28;20060;-66
2023/10/05 06:21:39;;;;;;;7.50;1.75;;;14.20;99.90;;;;;;4995755;28;20107;-66
2023/10/05 06:24:05;;;;;;;10.55;1.95;;;14.20;99.90;;;;;;5027900;28;20102;-66
2023/10/05 06:26:31;;;;;;;9.48;1.95;;;14.20;99.90;;;;;;5029697;28;20048;-66
2023/10/05 06:28:57;;;;;;;6.53;1.52;;;14.30;99.90;;;;;;5027859;28;20045;-66
2023/10/05 06:31:23;;;;;;;9.07;1.70;;;14.30;99.90;;;;;;5029300;28;20075;-66
2023/10/05 06:33:49;;;;;;;11.77;2.25;;;14.30;99.90;;;;;;5027528;28;20438;-66
2023/10/05 06:36:15;;;;;;;13.48;1.63;;;14.30;99.90;;;;;;5027474;28;20045;-65
2023/10/05 06:38:40;;;;;;;16.33;2.20;;;14.30;99.90;;;;;;5029886;28;20034;-64
2023/10/05 06:41:07;;;;;;;18.10;1.98;;;14.40;99.90;;;;;;5026163;28;20053;-64
2023/10/05 06:43:35;;;;;;;8.25;1.73;;;14.30;99.90;;;;;;5020145;28;20489;-64
2023/10/05 06:46:17;;;;;;;6.77;1.77;;;14.40;99.90;;;;;;5020083;28;20041;-65
2023/10/05 06:48:44;;;;;;;5.43;2.17;;;14.40;99.90;;;;;;5011604;28;20395;-65
2023/10/05 06:51:13;;;;;;;12.90;2.63;;;14.40;99.90;;;;;;5027780;28;20120;-64
2023/10/05 06:53:39;;;;;;;4.15;1.73;;;14.40;99.90;;;;;;5027817;28;20077;-64
2023/10/05 06:56:04;;;;;;;12.32;2.83;;;14.50;99.90;;;;;;5028867;28;20076;-64
2023/10/05 06:58:30;;;;;;;13.70;3.13;;;14.50;99.90;;;;;;5022639;28;20046;-64
2023/10/05 07:00:56;;;;;;;9.45;1.67;;;14.50;99.90;;;;;;5028091;28;20420;-65
2023/10/05 07:03:22;;;;;;;11.15;2.03;;;14.60;99.90;;;;;;5027408;28;20068;-64
2023/10/05 07:05:47;;;;;;;8.60;1.75;;;14.60;99.90;;;;;;5028010;28;20055;-65
2023/10/05 07:08:14;;;;;;;11.90;2.28;;;14.60;99.90;;;;;;5028135;28;20115;-65
2023/10/05 07:10:41;;;;;;;10.70;2.33;;;14.60;99.90;;;;;;5027161;28;20128;-65
2023/10/05 07:13:09;;;;;;;9.68;1.92;;;14.60;99.90;;;;;;5027643;28;20542;-65
2023/10/05 07:15:35;;;;;;;7.95;1.80;;;14.60;99.90;;;;;;5034717;28;20030;-65
2023/10/05 07:18:01;;;;;;;9.35;2.28;;;14.70;99.90;;;;;;5028148;28;20111;-65
2023/10/05 07:20:27;;;;;;;6.90;1.95;;;14.70;99.90;;;;;;5027020;28;20459;-65
2023/10/05 07:22:54;;;;;;;15.88;2.25;;;14.70;99.90;;;;;;5009040;28;20054;-65
2023/10/05 07:25:21;;;;;;;6.68;2.33;;;14.70;99.90;;;;;;5027085;28;20038;-65
2023/10/05 07:27:47;;;;;;;11.75;1.77;;;14.60;99.90;;;;;;5010065;28;20052;-65
2023/10/05 07:30:14;;;;;;;11.15;2.55;;;14.60;99.90;;;;;;5027592;28;20030;-65
2023/10/05 07:32:41;;;;;;;8.77;1.73;;;14.70;99.90;;;;;;5027058;28;20435;-65
2023/10/05 07:35:08;;;;;;;6.70;2.03;;;14.60;99.90;;;;;;5022409;28;20081;-65
2023/10/05 07:37:35;;;;;;;8.73;1.85;;;14.60;99.90;;;;;;5022312;28;20514;-65
2023/10/05 07:40:04;;;;;;;14.43;1.83;;;14.70;99.90;;;;;;5006919;28;20408;-65
2023/10/05 07:42:30;;;;;;;4.95;1.60;;;14.60;99.90;;;;;;5026409;28;20501;-65
2023/10/05 07:44:57;;;;;;;7.50;1.50;;;14.60;99.90;;;;;;5006033;28;20073;-65
2023/10/05 07:47:24;;;;;;;11.82;2.47;;;14.60;99.90;;;;;;5024628;28;20061;-67
2023/10/05 07:49:55;;;;;;;8.82;2.47;;;14.70;99.90;;;;;;5024654;28;20122;-68
2023/10/05 07:52:21;;;;;;;12.07;2.72;;;14.60;99.90;;;;;;5010369;28;20483;-67
2023/10/05 07:54:47;;;;;;;8.70;1.80;;;14.60;99.90;;;;;;5006977;28;20499;-67
2023/10/05 07:57:14;;;;;;;6.97;2.05;;;14.60;99.90;;;;;;5026412;28;20138;-68
2023/10/05 07:59:41;;;;;;;7.25;1.73;;;14.50;99.90;;;;;;5007900;28;20406;-68
2023/10/05 08:02:07;;;;;;;12.88;2.50;;;14.60;99.90;;;;;;5026642;28;20057;-70
2023/10/05 08:04:33;;;;;;;5.60;1.80;;;14.60;99.90;;;;;;5009332;28;20053;-69
2023/10/05 08:06:59;;;;;;;10.35;2.00;;;14.50;99.90;;;;;;5025530;28;20116;-69
2023/10/05 08:09:27;;;;;;;7.35;1.75;;;14.50;99.90;;;;;;5010083;28;20096;-69
2023/10/05 08:11:57;;;;;;;4.97;1.33;;;14.60;99.90;;;;;;5025990;28;20049;-69
2023/10/05 08:14:27;;;;;;;8.20;2.15;;;14.60;99.90;;;;;;5009302;28;20045;-70
2023/10/05 08:16:58;;;;;;;13.18;3.08;;;14.60;99.90;;;;;;5023279;28;20128;-69
2023/10/05 08:19:24;;;;;;;8.10;1.98;;;14.60;99.90;;;;;;5007491;28;20107;-74
2023/10/05 08:21:54;;;;;;;7.65;1.90;;;14.60;99.90;;;;;;5003779;28;20099;-72
2023/10/05 08:24:26;;;;;;;7.97;2.22;;;14.60;99.90;;;;;;5014437;28;20395;-73
2023/10/05 08:26:53;;;;;;;3.58;1.33;;;14.60;99.90;;;;;;5014044;28;20110;-72
2023/10/05 08:29:22;;;;;;;6.40;1.80;;;14.60;99.90;;;;;;5001436;28;20155;-71
2023/10/05 08:31:52;;;;;;;5.30;1.58;;;14.70;99.90;;;;;;5006465;28;20836;-71
2023/10/05 08:34:21;;;;;;;8.38;1.55;;;14.70;99.90;;;;;;5002077;28;20139;-72
2023/10/05 08:36:53;;;;;;;3.20;1.50;;;14.60;99.90;;;;;;5024020;28;20135;-71
2023/10/05 08:39:26;;;;;;;5.35;1.40;;;14.60;99.90;;;;;;5005421;28;20460;-71
2023/10/05 08:42:02;;;;;;;6.72;1.33;;;14.70;99.90;;;;;;4991358;28;20044;-71
2023/10/05 08:44:28;;;;;;;3.80;1.50;;;14.70;99.90;;;;;;5008952;28;20060;-71
2023/10/05 08:46:58;;;;;;;7.88;1.40;;;14.80;99.90;;;;;;5007592;28;20100;-71
2023/10/05 08:49:24;;;;;;;14.90;2.80;;;14.70;99.90;;;;;;5008076;28;20556;-71
2023/10/05 08:51:51;;;;;;;6.72;1.52;;;14.80;99.90;;;;;;5005573;28;20050;-71
2023/10/05 08:54:21;;;;;;;6.30;1.33;;;14.90;99.90;;;;;;4998886;28;20076;-71
2023/10/05 08:56:48;;;;;;;4.15;1.48;;;15.10;99.90;;;;;;5006682;28;20053;-71
2023/10/05 08:59:14;;;;;;;3.90;1.23;;;15.10;99.90;;;;;;5025278;28;20049;-72
2023/10/05 09:01:46;;;;;;;4.85;1.35;;;15.20;99.90;;;;;;4989107;28;20038;-71
2023/10/05 09:06:55;;;;;;;5.65;1.27;;;15.20;99.90;;;;;;5024195;28;20389;-72
2023/10/05 09:09:39;;;;;;;4.53;1.23;;;15.30;99.90;;;;;;5006562;28;20124;-75
2023/10/05 09:12:42;;;;;;;7.65;1.23;;;15.30;99.90;;;;;;5024261;28;20144;-73
2023/10/05 09:20:36;;;;;;;6.63;1.63;;;15.40;99.90;;;;;;5006746;28;20133;-71
2023/10/05 09:23:07;;;;;;;4.45;1.30;;;15.40;99.90;;;;;;4999667;28;20361;-72
2023/10/05 09:25:38;;;;;;;4.30;1.30;;;15.60;99.90;;;;;;4972808;28;20044;-72
2023/10/05 09:28:15;;;;;;;4.93;1.17;;;15.70;99.90;;;;;;5002932;28;20057;-72
2023/10/05 09:30:55;;;;;;;2.70;0.90;;;15.70;99.90;;;;;;5001076;28;20092;-71
2023/10/05 09:33:33;;;;;;;5.15;1.48;;;15.80;99.90;;;;;;4987323;28;20042;-71
2023/10/05 09:36:19;;;;;;;5.07;1.45;;;15.70;99.90;;;;;;5002295;28;20048;-71
2023/10/05 09:38:51;;;;;;;7.43;1.60;;;15.70;99.90;;;;;;4980193;28;20133;-71
2023/10/05 09:41:18;;;;;;;5.57;1.38;;;15.80;99.90;;;;;;4991857;28;20058;-71
2023/10/05 09:43:44;;;;;;;9.02;1.77;;;15.80;99.90;;;;;;4980984;28;20719;-71
2023/10/05 09:46:15;;;;;;;5.95;1.70;;;15.80;99.90;;;;;;4997303;28;20519;-71
2023/10/05 09:48:42;;;;;;;4.32;1.30;;;15.90;99.90;;;;;;4986392;28;20046;-70
2023/10/05 09:51:08;;;;;;;8.13;1.70;;;16.00;99.90;;;;;;5001641;28;20049;-71
2023/10/05 09:53:39;;;;;;;4.93;1.60;;;16.00;99.90;;;;;;4989507;28;20199;-72
2023/10/05 09:56:11;;;;;;;4.85;1.30;;;16.20;99.90;;;;;;5008522;28;20104;-88
2023/10/05 09:58:39;;;;;;;9.68;1.85;;;16.30;99.90;;;;;;4991484;28;20120;-70
2023/10/05 10:01:13;;;;;;;10.15;2.47;;;16.30;99.90;;;;;;4989771;28;20577;-71
2023/10/05 10:03:46;;;;;;;13.35;2.35;;;16.40;99.90;;;;;;4976381;28;20120;-71
2023/10/05 10:06:18;;;;;;;5.07;1.40;;;16.40;99.90;;;;;;4991512;28;20428;-70
2023/10/05 10:08:53;;;;;;;14.02;2.75;;;16.30;99.90;;;;;;5008563;28;20472;-70
2023/10/05 10:11:24;;;;;;;3.47;1.45;;;16.30;99.90;;;;;;4979034;28;20065;-70
2023/10/05 10:14:00;;;;;;;11.23;1.70;;;16.20;99.90;;;;;;4988121;28;20121;-69
2023/10/05 10:16:28;;;;;;;4.35;1.20;;;16.10;99.90;;;;;;4979624;28;20806;-70
2023/10/05 10:19:04;;;;;;;5.25;1.25;;;16.10;99.90;;;;;;5023509;28;20789;-70
2023/10/05 10:21:35;;;;;;;6.60;1.60;;;16.20;99.90;;;;;;5015099;28;20395;-72
2023/10/05 10:24:04;;;;;;;7.65;1.45;;;16.20;99.90;;;;;;5007723;28;20069;-71
2023/10/05 10:26:31;;;;;;;7.90;1.67;;;16.20;99.90;;;;;;5005186;28;20038;-71
2023/10/05 10:28:57;;;;;;;6.00;1.20;;;16.10;99.90;;;;;;4995454;28;20053;-72
2023/10/05 10:31:42;;;;;;;5.45;0.95;;;16.20;99.90;;;;;;5008123;28;20041;-72
2023/10/05 10:34:19;;;;;;;5.35;1.95;;;16.10;99.90;;;;;;4999252;28;20049;-72
2023/10/05 10:36:52;;;;;;;6.47;1.65;;;16.20;99.90;;;;;;5011407;28;20777;-81
2023/10/05 10:39:27;;;;;;;12.68;3.40;;;16.20;99.90;;;;;;5023799;28;20095;-72
2023/10/05 10:42:04;;;;;;;7.22;1.50;;;16.30;99.90;;;;;;5007630;28;20046;-71
2023/10/05 10:47:16;;;;;;;6.82;1.77;;;16.40;99.90;;;;;;4997853;28;20057;-70
2023/10/05 10:50:11;;;;;;;4.15;1.58;;;16.60;99.90;;;;;;5027963;28;20384;-70
2023/10/05 10:52:38;;;;;;;5.68;1.70;;;16.70;99.90;;;;;;4989280;28;20403;-87
2023/10/05 10:55:07;;;;;;;2.25;1.10;;;16.70;99.90;;;;;;5009582;28;20076;-70
2023/10/05 10:57:33;;;;;;;5.90;1.20;;;16.90;99.90;;;;;;5007830;28;20045;-69
2023/10/05 11:02:44;;;;;;;4.78;1.27;;;17.00;99.90;;;;;;5022688;28;20129;-70
2023/10/05 11:05:15;;;;;;;7.68;1.40;;;17.10;99.90;;;;;;5006306;28;20057;-69
2023/10/05 11:07:44;;;;;;;3.15;1.02;;;17.20;99.90;;;;;;5010427;28;20071;-69
2023/10/05 11:10:18;;;;;;;5.28;1.20;;;17.30;99.90;;;;;;5008133;28;20507;-69
2023/10/05 11:12:53;;;;;;;8.73;1.33;;;17.40;99.90;;;;;;5010163;28;20112;-70
2023/10/05 11:15:22;;;;;;;7.63;1.05;;;17.40;99.90;;;;;;5010211;28;20052;-69
2023/10/05 11:17:52;;;;;;;7.07;1.48;;;17.40;99.90;;;;;;5026771;28;20535;-69
2023/10/05 11:20:24;;;;;;;7.90;1.52;;;17.30;99.90;;;;;;5027452;28;20048;-68
2023/10/05 11:22:55;;;;;;;8.02;1.20;;;17.30;99.90;;;;;;5023837;28;20463;-71
2023/10/05 11:25:31;;;;;;;9.07;2.08;;;17.20;99.90;;;;;;5011704;28;20037;-69
2023/10/05 11:28:07;;;;;;;5.00;1.00;;;17.10;99.90;;;;;;5027360;28;20103;-68
2023/10/05 11:30:45;;;;;;;7.90;2.00;;;17.00;99.90;;;;;;5018316;28;20044;-68
2023/10/05 11:33:17;;;;;;;4.47;1.00;;;16.80;99.90;;;;;;5025451;28;20038;-69
2023/10/05 11:35:51;;;;;;;8.38;1.52;;;16.70;99.90;;;;;;5013724;28;20042;-69
2023/10/05 11:38:26;;;;;;;5.38;1.05;;;16.70;99.90;;;;;;5027432;28;20044;-68
2023/10/05 11:40:56;;;;;;;2.20;0.90;;;16.70;99.90;;;;;;5027032;28;20504;-68
2023/10/05 11:43:22;;;;;;;7.18;1.00;;;16.60;99.90;;;;;;4992245;28;20151;-72
2023/10/05 11:45:59;;;;;;;2.55;0.82;;;16.50;99.90;;;;;;5018075;28;20045;-69
2023/10/05 11:48:48;;;;;;;6.85;1.20;;;16.50;99.90;;;;;;5026782;28;20080;-68
2023/10/05 11:51:16;;;;;;;4.13;0.90;;;16.40;99.90;;;;;;5003346;28;20049;-68
2023/10/05 11:53:43;;;;;;;4.40;0.95;;;16.40;99.90;;;;;;5007102;28;20076;-69
2023/10/05 11:56:09;;;;;;;1.83;0.75;;;16.40;99.90;;;;;;5005286;28;20042;-69
2023/10/05 11:58:37;;;;;;;3.53;0.68;;;16.40;99.90;;;;;;5023861;28;20487;-68
2023/10/05 12:01:06;;;;;;;3.53;0.90;;;16.30;99.90;;;;;;5007708;28;20037;-69
2023/10/05 12:03:32;;;;;;;5.18;0.93;;;16.30;99.90;;;;;;5007661;28;20884;-69
2023/10/05 12:06:02;;;;;;;1.25;0.82;;;16.20;99.90;;;;;;5018373;28;20059;-70
2023/10/05 12:08:31;;;;;;;2.08;0.70;;;16.10;99.90;;;;;;5026768;28;20099;-70
2023/10/05 12:12:20;;;;;;;3.60;0.90;;;16.00;99.90;;;;;;5064427;28;20959;-71
2023/10/05 12:14:46;;;;;;;6.35;0.95;;;15.70;99.90;;;;;;5040141;28;20191;-71
2023/10/05 12:17:12;;;;;;;5.53;2.05;;;15.60;99.90;;;;;;5056499;28;20044;-70
2023/10/05 12:19:39;;;;;;;4.43;1.80;;;15.50;99.90;;;;;;5051945;28;20391;-69
2023/10/05 12:22:06;;;;;;;6.20;2.25;;;15.60;99.90;;;;;;5049601;28;20059;-69
2023/10/05 12:24:33;;;;;;;3.92;1.00;;;15.50;99.90;;;;;;5056240;28;20045;-69
2023/10/05 12:27:04;;;;;;;5.68;2.60;;;15.60;99.90;;;;;;5056305;28;20044;-69
2023/10/05 12:29:30;;;;;;;4.90;2.13;;;15.60;99.90;;;;;;5030823;28;20116;-69
2023/10/05 12:32:08;;;;;;;4.68;2.00;;;15.60;99.90;;;;;;5041877;28;20077;-69
2023/10/05 12:34:35;;;;;;;6.43;2.35;;;15.60;99.90;;;;;;5043151;28;20390;-69
2023/10/05 12:37:00;;;;;;;4.75;1.65;;;15.70;99.90;;;;;;5046489;28;20049;-69
2023/10/05 12:39:27;;;;;;;7.72;2.97;;;15.80;99.90;;;;;;5053514;28;20051;-69
2023/10/05 12:41:54;;;;;;;9.32;2.83;;;15.90;99.90;;;;;;5076221;28;20491;-69
2023/10/05 12:44:21;;;;;;;5.65;2.45;;;16.10;99.90;;;;;;5043523;28;20489;-70
2023/10/05 12:46:47;;;;;;;5.22;2.42;;;16.20;99.90;;;;;;5026760;28;20044;-69
2023/10/05 12:49:17;;;;;;;7.95;3.00;;;16.30;99.90;;;;;;5028696;28;20399;-69
2023/10/05 12:51:45;;;;;;;6.47;2.85;;;16.50;99.90;;;;;;5073490;28;20051;-69
2023/10/05 12:54:34;;;;;;;7.10;2.83;;;16.60;99.90;;;;;;5048789;28;20083;-69
2023/10/05 12:57:10;;;;;;;7.13;2.70;;;16.90;99.90;;;;;;5053463;28;20087;-69
2023/10/05 12:59:37;;;;;;;7.90;1.60;;;17.00;99.90;;;;;;5058503;28;20053;-69
2023/10/05 13:02:13;;;;;;;6.30;1.38;;;17.00;99.90;;;;;;5040895;28;20049;-69
2023/10/05 13:04:41;;;;;;;9.82;2.40;;;17.00;99.90;;;;;;5046177;28;20041;-69
2023/10/05 13:07:07;;;;;;;3.95;1.40;;;16.80;99.90;;;;;;5051938;28;20041;-68
2023/10/05 13:09:34;;;;;;;7.43;2.30;;;16.80;99.90;;;;;;5078776;28;20040;-69
2023/10/05 13:12:08;;;;;;;6.82;2.83;;;16.80;99.90;;;;;;5077121;28;20114;-69
2023/10/05 13:14:34;;;;;;;5.32;1.13;;;16.80;99.90;;;;;;5070727;28;20048;-68
2023/10/05 13:17:00;;;;;;;4.95;1.13;;;16.80;99.90;;;;;;5063676;28;20044;-69
2023/10/05 13:19:26;;;;;;;2.75;1.27;;;16.90;99.90;;;;;;5071815;28;20068;-69
2023/10/05 13:21:53;;;;;;;5.32;0.90;;;16.80;99.90;;;;;;5042369;28;20092;-69
2023/10/05 13:24:20;;;;;;;2.55;0.90;;;16.60;99.90;;;;;;5056524;28;20090;-69